createdAt,value
2019-03-12T00:00:02.908Z,101007.30
2019-03-12T00:02:35.070Z,101000.28
2019-03-12T00:05:05.510Z,101007.75
2019-03-12T00:07:35.688Z,101007.47
2019-03-12T00:10:05.957Z,101007.81
2019-03-12T00:12:36.232Z,101012.59
2019-03-12T00:15:06.577Z,101013.99
2019-03-12T00:17:37.018Z,101019.77
2019-03-12T00:20:07.344Z,101026.94
2019-03-12T00:22:37.657Z,101034.00
2019-03-12T00:25:08.037Z,101033.56
2019-03-12T00:27:38.284Z,101037.64
2019-03-12T00:30:09.076Z,101039.88
2019-03-12T00:32:39.398Z,101043.57
2019-03-12T00:35:09.572Z,101051.17
2019-03-12T00:37:40.094Z,101057.30
2019-03-12T00:40:10.342Z,101055.17
2019-03-12T00:42:40.958Z,101064.88
2019-03-12T00:45:11.288Z,101066.81
2019-03-12T00:47:41.687Z,101068.95
2019-03-12T00:50:11.919Z,101068.52
2019-03-12T00:52:42.199Z,101070.95
2019-03-12T00:55:12.525Z,101076.38
2019-03-12T00:57:42.578Z,101085.92
2019-03-12T01:00:13.637Z,101090.26
2019-03-12T01:02:44.234Z,101099.13
2019-03-12T01:05:14.706Z,101102.27
2019-03-12T01:07:45.341Z,101106.04
2019-03-12T01:10:15.868Z,101111.97
2019-03-12T01:12:46.200Z,101111.67
2019-03-12T01:15:16.456Z,101118.91
2019-03-12T01:17:46.819Z,101121.44
2019-03-12T01:20:17.103Z,101120.44
2019-03-12T01:22:47.364Z,101120.48
2019-03-12T01:25:17.486Z,101123.83
2019-03-12T01:27:48.171Z,101124.72
2019-03-12T01:30:18.374Z,101129.64
2019-03-12T01:32:48.679Z,101134.02
2019-03-12T01:35:19.355Z,101145.06
2019-03-12T01:37:50.333Z,101149.15
2019-03-12T01:40:20.799Z,101144.81
2019-03-12T01:42:52.447Z,101155.28
2019-03-12T01:45:23.352Z,101156.91
2019-03-12T01:47:53.892Z,101165.02
2019-03-12T01:50:24.522Z,101162.86
2019-03-12T01:52:54.804Z,101168.19
2019-03-12T01:55:25.306Z,101173.45
2019-03-12T01:57:55.582Z,101174.25
2019-03-12T02:00:25.848Z,101172.20
2019-03-12T02:02:56.319Z,101176.98
2019-03-12T02:05:26.943Z,101170.59
2019-03-12T02:07:57.910Z,101181.28
2019-03-12T02:10:28.108Z,101179.78
2019-03-12T02:12:58.338Z,101184.75
2019-03-12T02:15:28.842Z,101189.51
2019-03-12T02:17:59.447Z,101190.07
2019-03-12T02:20:29.798Z,101193.73
2019-03-12T02:23:00.080Z,101205.53
2019-03-12T02:25:30.481Z,101208.25
2019-03-12T02:28:00.667Z,101210.95
2019-03-12T02:30:31.043Z,101209.66
2019-03-12T02:33:01.442Z,101210.78
2019-03-12T02:35:31.623Z,101218.94
2019-03-12T02:38:01.890Z,101213.83
2019-03-12T02:40:32.544Z,101209.83
2019-03-12T02:43:02.859Z,101209.88
2019-03-12T02:45:33.188Z,101210.91
2019-03-12T02:48:03.510Z,101217.49
2019-03-12T02:50:33.636Z,101222.33
2019-03-12T02:53:03.968Z,101213.77
2019-03-12T02:55:34.756Z,101219.80
2019-03-12T02:58:04.941Z,101222.54
2019-03-12T03:00:35.217Z,101225.47
2019-03-12T03:03:05.286Z,101237.17
2019-03-12T03:05:37.249Z,101229.96
2019-03-12T03:08:09.380Z,101232.80
2019-03-12T03:10:39.795Z,101238.58
2019-03-12T03:13:10.400Z,101239.81
2019-03-12T03:15:45.800Z,101240.98
2019-03-12T03:18:16.448Z,101253.36
2019-03-12T03:20:46.759Z,101253.13
2019-03-12T03:23:17.331Z,101255.88
2019-03-12T03:25:47.566Z,101260.00
2019-03-12T03:28:17.986Z,101262.59
2019-03-12T03:30:48.116Z,101266.52
2019-03-12T03:33:18.401Z,101270.72
2019-03-12T03:35:49.121Z,101269.30
2019-03-12T03:38:19.523Z,101272.16
2019-03-12T03:40:50.324Z,101273.52
2019-03-12T03:43:20.721Z,101279.02
2019-03-12T03:45:50.879Z,101282.90
2019-03-12T03:48:21.166Z,101288.41
2019-03-12T03:50:51.439Z,101292.34
2019-03-12T03:53:22.150Z,101286.09
2019-03-12T03:55:52.444Z,101300.23
2019-03-12T03:58:22.769Z,101308.72
2019-03-12T04:00:53.064Z,101309.95
2019-03-12T04:03:24.473Z,101314.02
2019-03-12T04:05:55.115Z,101316.88
2019-03-12T04:08:25.329Z,101322.88
2019-03-12T04:10:55.523Z,101322.24
2019-03-12T04:13:25.724Z,101322.38
2019-03-12T04:15:57.374Z,101329.50
2019-03-12T04:18:29.230Z,101327.55
2019-03-12T04:20:59.408Z,101329.36
2019-03-12T04:23:29.738Z,101333.47
2019-03-12T04:26:00.012Z,101335.52
2019-03-12T04:28:30.384Z,101340.22
2019-03-12T04:31:00.606Z,101334.33
2019-03-12T04:33:48.339Z,101341.58
2019-03-12T04:36:18.724Z,101340.94
2019-03-12T04:38:49.053Z,101346.11
2019-03-12T04:41:19.359Z,101353.00
2019-03-12T04:43:49.641Z,101353.16
2019-03-12T04:46:19.847Z,101367.23
2019-03-12T04:48:50.007Z,101367.38
2019-03-12T04:51:20.188Z,101359.80
2019-03-12T04:53:50.460Z,101365.95
2019-03-12T04:56:21.034Z,101375.96
2019-03-12T04:58:51.419Z,101384.17
2019-03-12T05:01:21.499Z,101383.91
2019-03-12T05:03:52.406Z,101385.14
2019-03-12T05:06:22.923Z,101385.86
2019-03-12T05:08:53.004Z,101392.42
2019-03-12T05:11:23.264Z,101399.34
2019-03-12T05:14:11.169Z,101395.80
2019-03-12T05:16:41.372Z,101403.46
2019-03-12T05:19:11.965Z,101412.58
2019-03-12T05:21:44.899Z,101417.74
2019-03-12T05:24:14.698Z,101418.00
2019-03-12T05:26:44.879Z,101424.84
2019-03-12T05:29:15.044Z,101428.80
2019-03-12T05:31:45.311Z,101429.04
2019-03-12T05:34:15.443Z,101441.80
2019-03-12T05:36:45.649Z,101442.13
2019-03-12T05:39:15.739Z,101444.46
2019-03-12T05:41:46.099Z,101456.87
2019-03-12T05:44:16.633Z,101456.09
2019-03-12T05:46:46.845Z,101468.28
2019-03-12T05:49:17.139Z,101472.05
2019-03-12T05:51:47.323Z,101477.31
2019-03-12T05:54:17.766Z,101477.77
2019-03-12T05:56:47.836Z,101477.53
2019-03-12T05:59:18.195Z,101470.87
2019-03-12T06:01:48.288Z,101476.82
2019-03-12T06:04:18.790Z,101470.48
2019-03-12T06:06:48.984Z,101478.28
2019-03-12T06:09:29.693Z,101473.30
2019-03-12T06:11:52.440Z,101472.51
2019-03-12T06:14:22.723Z,101469.38
2019-03-12T06:16:53.637Z,101481.31
2019-03-12T06:19:23.850Z,101480.78
2019-03-12T06:21:54.091Z,101480.40
2019-03-12T06:24:24.333Z,101468.35
2019-03-12T06:26:54.496Z,101474.70
2019-03-12T06:29:24.757Z,101472.03
2019-03-12T06:31:56.616Z,101463.94
2019-03-12T06:34:28.635Z,101467.44
2019-03-12T06:37:00.673Z,101473.80
2019-03-12T06:39:32.549Z,101469.00
2019-03-12T06:42:07.561Z,101479.56
2019-03-12T06:44:38.089Z,101471.80
2019-03-12T06:47:16.149Z,101478.89
2019-03-12T06:50:06.550Z,101470.55
2019-03-12T06:52:47.842Z,101486.18
2019-03-12T06:55:19.784Z,101485.34
2019-03-12T06:58:01.337Z,101482.73
2019-03-12T07:00:33.212Z,101489.30
2019-03-12T07:03:05.254Z,101497.05
2019-03-12T07:05:55.340Z,101509.19
2019-03-12T07:08:27.139Z,101511.30
2019-03-12T07:10:58.980Z,101516.41
2019-03-12T07:13:30.696Z,101505.50
2019-03-12T07:16:02.529Z,101506.81
2019-03-12T07:18:52.404Z,101515.66
2019-03-12T07:21:33.421Z,101522.31
2019-03-12T07:24:21.920Z,101519.84
2019-03-12T07:27:10.267Z,101532.44
2019-03-12T07:29:57.406Z,101530.67
2019-03-12T07:32:38.531Z,101534.49
2019-03-12T07:35:10.625Z,101526.31
2019-03-12T07:37:42.694Z,101522.52
2019-03-12T07:40:19.932Z,101531.13
2019-03-12T07:43:07.725Z,101526.77
2019-03-12T07:45:48.952Z,101520.89
2019-03-12T07:48:30.000Z,101529.05
2019-03-12T07:51:05.084Z,101518.30
2019-03-12T07:53:58.625Z,101519.58
2019-03-12T07:56:24.944Z,101516.79
2019-03-12T07:58:56.853Z,101519.23
2019-03-12T08:01:31.383Z,101514.92
2019-03-12T08:04:12.315Z,101511.26
2019-03-12T08:06:50.253Z,101505.34
2019-03-12T08:09:28.556Z,101513.83
2019-03-12T08:12:03.294Z,101521.97
2019-03-12T08:14:41.382Z,101517.09
2019-03-12T08:17:13.097Z,101522.84
2019-03-12T08:19:45.366Z,101516.69
2019-03-12T08:22:17.572Z,101506.73
2019-03-12T08:25:04.654Z,101508.69
2019-03-12T08:27:51.582Z,101518.32
2019-03-12T08:30:39.820Z,101516.13
2019-03-12T08:33:23.770Z,101530.08
2019-03-12T08:36:01.884Z,101532.87
2019-03-12T08:38:36.489Z,101524.98
2019-03-12T08:41:11.434Z,101527.07
2019-03-12T08:43:55.306Z,101524.91
2019-03-12T08:46:30.421Z,101510.48
2019-03-12T08:49:05.414Z,101517.95
2019-03-12T08:51:40.230Z,101521.92
2019-03-12T08:54:25.480Z,101536.84
2019-03-12T08:57:03.337Z,101534.15
2019-03-12T08:59:38.118Z,101548.91
2019-03-12T09:02:28.100Z,101547.72
2019-03-12T09:05:02.651Z,101532.03
2019-03-12T09:07:34.629Z,101526.30
2019-03-12T09:10:18.732Z,101531.07
2019-03-12T09:12:50.659Z,101525.86
2019-03-12T09:15:31.702Z,101526.53
2019-03-12T09:18:03.547Z,101524.95
2019-03-12T09:20:38.721Z,101518.55
2019-03-12T09:23:23.288Z,101526.27
2019-03-12T09:25:58.102Z,101528.27
2019-03-12T09:28:35.582Z,101528.55
2019-03-12T09:31:13.161Z,101534.08
2019-03-12T09:33:51.914Z,101533.77
2019-03-12T09:36:27.379Z,101524.64
2019-03-12T09:39:11.512Z,101515.14
2019-03-12T09:41:59.863Z,101521.95
2019-03-12T09:44:34.558Z,101522.91
2019-03-12T09:47:09.691Z,101520.41
2019-03-12T09:49:41.699Z,101520.74
2019-03-12T09:52:22.710Z,101520.88
2019-03-12T09:54:54.705Z,101525.73
2019-03-12T09:57:44.481Z,101517.53
2019-03-12T10:00:17.244Z,101518.24
2019-03-12T10:02:49.409Z,101524.70
2019-03-12T10:05:27.495Z,101520.06
2019-03-12T10:08:08.279Z,101525.81
2019-03-12T10:10:56.567Z,101515.39
2019-03-12T10:13:28.597Z,101505.67
2019-03-12T10:16:03.532Z,101510.06
2019-03-12T10:18:51.907Z,101504.60
2019-03-12T10:21:29.997Z,101506.17
2019-03-12T10:24:14.171Z,101505.23
2019-03-12T10:26:49.925Z,101508.09
2019-03-12T10:29:33.855Z,101509.22
2019-03-12T10:32:08.838Z,101515.91
2019-03-12T10:34:52.805Z,101524.62
2019-03-12T10:37:31.025Z,101513.38
2019-03-12T10:40:14.770Z,101513.77
2019-03-12T10:42:50.750Z,101498.02
2019-03-12T10:45:22.779Z,101480.67
2019-03-12T10:47:57.688Z,101487.13
2019-03-12T10:50:28.122Z,101489.71
2019-03-12T10:52:58.489Z,101477.31
2019-03-12T10:55:29.023Z,101480.22
2019-03-12T10:57:59.177Z,101474.85
2019-03-12T11:00:29.833Z,101470.92
2019-03-12T11:03:00.090Z,101467.75
2019-03-12T11:05:30.237Z,101472.11
2019-03-12T11:08:00.987Z,101473.20
2019-03-12T11:10:31.558Z,101475.83
2019-03-12T11:13:02.245Z,101472.48
2019-03-12T11:15:32.766Z,101473.93
2019-03-12T11:18:04.159Z,101477.22
2019-03-12T11:20:34.605Z,101481.25
2019-03-12T11:23:04.886Z,101473.09
2019-03-12T11:25:35.537Z,101468.63
2019-03-12T11:28:06.017Z,101467.73
2019-03-12T11:30:36.596Z,101465.73
2019-03-12T11:33:07.058Z,101459.46
2019-03-12T11:35:39.594Z,101468.84
2019-03-12T11:38:09.848Z,101454.25
2019-03-12T11:40:40.397Z,101448.34
2019-03-12T11:43:10.856Z,101446.20
2019-03-12T11:45:41.131Z,101452.73
2019-03-12T11:48:11.861Z,101430.86
2019-03-12T11:50:42.219Z,101448.09
2019-03-12T11:53:12.628Z,101441.70
2019-03-12T11:55:42.977Z,101439.17
2019-03-12T11:58:13.582Z,101427.33
2019-03-12T12:00:51.266Z,101420.88
2019-03-12T12:03:22.508Z,101412.14
2019-03-12T12:05:52.930Z,101406.98
2019-03-12T12:08:23.260Z,101418.58
2019-03-12T12:10:53.584Z,101411.93
2019-03-12T12:13:23.934Z,101401.44
2019-03-12T12:15:54.181Z,101408.11
2019-03-12T12:18:24.314Z,101404.62
2019-03-12T12:20:54.569Z,101410.25
2019-03-12T12:23:24.868Z,101413.03
2019-03-12T12:25:55.085Z,101411.10
2019-03-12T12:28:25.571Z,101414.94
2019-03-12T12:30:56.097Z,101415.09
2019-03-12T12:33:26.157Z,101383.72
2019-03-12T12:35:56.441Z,101397.47
2019-03-12T12:38:26.584Z,101412.34
2019-03-12T12:40:56.681Z,101394.70
2019-03-12T12:43:27.210Z,101386.47
2019-03-12T12:45:57.531Z,101393.84
2019-03-12T12:48:27.905Z,101397.84
2019-03-12T12:51:03.495Z,101394.72
2019-03-12T12:53:30.144Z,101385.76
2019-03-12T12:56:00.594Z,101385.06
2019-03-12T12:58:31.206Z,101386.23
2019-03-12T13:01:01.817Z,101387.78
2019-03-12T13:03:32.041Z,101402.64
2019-03-12T13:06:02.313Z,101386.11
2019-03-12T13:08:32.502Z,101383.16
2019-03-12T13:11:03.882Z,101381.19
2019-03-12T13:13:34.231Z,101355.65
2019-03-12T13:16:04.438Z,101375.03
2019-03-12T13:18:34.978Z,101375.33
2019-03-12T13:21:05.253Z,101366.06
2019-03-12T13:23:36.285Z,101389.03
2019-03-12T13:26:06.548Z,101360.97
2019-03-12T13:28:37.059Z,101367.11
2019-03-12T13:31:07.379Z,101345.48
2019-03-12T13:33:37.799Z,101361.31
2019-03-12T13:36:09.862Z,101348.48
2019-03-12T13:38:46.580Z,101344.05
2019-03-12T13:41:12.977Z,101349.03
2019-03-12T13:43:43.426Z,101353.45
2019-03-12T13:46:13.773Z,101354.39
2019-03-12T13:48:44.359Z,101354.79
2019-03-12T13:51:14.723Z,101344.88
2019-03-12T13:53:46.349Z,101345.10
2019-03-12T13:56:16.880Z,101327.44
2019-03-12T13:58:47.660Z,101336.73
2019-03-12T14:01:18.122Z,101335.45
2019-03-12T14:03:48.477Z,101332.81
2019-03-12T14:06:18.795Z,101327.82
2019-03-12T14:08:48.978Z,101334.94
2019-03-12T14:11:19.190Z,101316.41
2019-03-12T14:13:49.715Z,101335.36
2019-03-12T14:16:20.251Z,101330.07
2019-03-12T14:18:50.476Z,101328.03
2019-03-12T14:21:20.923Z,101326.67
2019-03-12T14:23:56.282Z,101315.64
2019-03-12T14:26:27.737Z,101331.75
2019-03-12T14:28:58.200Z,101327.81
2019-03-12T14:31:28.442Z,101329.05
2019-03-12T14:33:58.785Z,101330.00
2019-03-12T14:36:28.946Z,101328.34
2019-03-12T14:38:59.110Z,101325.16
2019-03-12T14:41:29.628Z,101319.90
2019-03-12T14:43:59.808Z,101321.14
2019-03-12T14:46:30.127Z,101314.55
2019-03-12T14:49:04.480Z,101316.09
2019-03-12T14:51:53.713Z,101311.25
2019-03-12T14:54:23.989Z,101306.38
2019-03-12T14:56:54.186Z,101304.97
2019-03-12T14:59:24.629Z,101298.20
2019-03-12T15:01:54.908Z,101291.54
2019-03-12T15:04:25.214Z,101285.30
2019-03-12T15:06:55.548Z,101280.25
2019-03-12T15:09:25.935Z,101268.64
2019-03-12T15:11:56.181Z,101256.00
2019-03-12T15:14:26.428Z,101261.73
2019-03-12T15:16:57.780Z,101277.02
2019-03-12T15:19:28.089Z,101266.47
2019-03-12T15:21:58.426Z,101266.98
2019-03-12T15:24:28.941Z,101252.89
2019-03-12T15:26:59.066Z,101248.59
2019-03-12T15:29:29.581Z,101248.36
2019-03-12T15:32:04.510Z,101252.32
2019-03-12T15:34:31.906Z,101243.42
2019-03-12T15:37:02.115Z,101237.14
2019-03-12T15:39:32.419Z,101235.55
2019-03-12T15:42:02.663Z,101230.89
2019-03-12T15:44:33.359Z,101232.73
2019-03-12T15:47:03.732Z,101221.41
2019-03-12T15:49:34.060Z,101218.96
2019-03-12T15:52:04.428Z,101216.03
2019-03-12T15:54:34.644Z,101209.79
2019-03-12T15:57:04.673Z,101204.74
2019-03-12T15:59:35.805Z,101204.71
2019-03-12T16:02:06.153Z,101199.47
2019-03-12T16:04:36.607Z,101188.30
2019-03-12T16:07:07.038Z,101199.06
2019-03-12T16:09:37.316Z,101187.59
2019-03-12T16:12:10.083Z,101186.30
2019-03-12T16:14:42.151Z,101185.93
2019-03-12T16:17:12.271Z,101179.69
2019-03-12T16:19:42.434Z,101179.63
2019-03-12T16:22:12.547Z,101176.97
2019-03-12T16:24:42.788Z,101176.67
2019-03-12T16:27:12.977Z,101169.28
2019-03-12T16:29:43.648Z,101161.66
2019-03-12T16:32:14.076Z,101157.83
2019-03-12T16:34:44.658Z,101160.78
2019-03-12T16:37:20.920Z,101157.27
2019-03-12T16:39:51.233Z,101149.93
2019-03-12T16:42:21.354Z,101142.24
2019-03-12T16:44:51.637Z,101145.25
2019-03-12T16:47:21.835Z,101138.34
2019-03-12T16:49:52.067Z,101128.57
2019-03-12T16:52:22.291Z,101130.94
2019-03-12T16:54:52.440Z,101120.59
2019-03-12T16:57:22.596Z,101128.33
2019-03-12T16:59:52.865Z,101122.44
2019-03-12T17:02:23.309Z,101118.91
2019-03-12T17:05:32.771Z,101117.48
2019-03-12T17:08:04.422Z,101121.39
2019-03-12T17:10:36.263Z,101114.69
2019-03-12T17:13:07.875Z,101114.69
2019-03-12T17:15:39.595Z,101112.15
2019-03-12T17:18:11.592Z,101116.60
2019-03-12T17:20:43.359Z,101125.98
2019-03-12T17:23:15.207Z,101113.66
2019-03-12T17:25:47.026Z,101116.72
2019-03-12T17:28:19.478Z,101121.23
2019-03-12T17:30:51.330Z,101119.98
2019-03-12T17:33:23.046Z,101125.37
2019-03-12T17:35:55.134Z,101110.84
2019-03-12T17:38:26.952Z,101116.05
2019-03-12T17:40:58.898Z,101116.72
2019-03-12T17:43:30.707Z,101113.55
2019-03-12T17:46:02.325Z,101111.36
2019-03-12T17:48:33.941Z,101118.41
2019-03-12T17:51:06.096Z,101102.98
2019-03-12T17:53:37.445Z,101109.06
2019-03-12T17:56:09.262Z,101106.39
2019-03-12T17:58:41.416Z,101100.11
2019-03-12T18:01:13.297Z,101104.27
2019-03-12T18:03:46.426Z,101100.03
2019-03-12T18:06:18.245Z,101090.66
2019-03-12T18:08:49.800Z,101082.39
2019-03-12T18:11:21.611Z,101085.44
2019-03-12T18:13:53.989Z,101082.27
2019-03-12T18:16:25.727Z,101076.41
2019-03-12T18:18:57.673Z,101082.03
2019-03-12T18:21:29.438Z,101079.87
2019-03-12T18:24:01.222Z,101079.24
2019-03-12T18:26:32.843Z,101086.08
2019-03-12T18:29:04.425Z,101079.51
2019-03-12T18:31:36.032Z,101071.70
2019-03-12T18:34:07.732Z,101073.58
2019-03-12T18:36:39.665Z,101071.38
2019-03-12T18:39:11.445Z,101064.78
2019-03-12T18:41:44.973Z,101068.95
2019-03-12T18:44:16.637Z,101064.53
2019-03-12T18:46:48.330Z,101067.26
2019-03-12T18:49:19.884Z,101057.89
2019-03-12T18:51:51.740Z,101051.29
2019-03-12T18:54:23.505Z,101055.10
2019-03-12T18:56:55.413Z,101055.20
2019-03-12T18:59:27.123Z,101047.61
2019-03-12T19:01:58.729Z,101040.23
2019-03-12T19:04:30.607Z,101045.00
2019-03-12T19:07:02.620Z,101039.09
2019-03-12T19:09:34.274Z,101042.08
2019-03-12T19:12:06.191Z,101039.25
2019-03-12T19:14:37.638Z,101042.73
2019-03-12T19:17:09.298Z,101034.90
2019-03-12T19:19:41.032Z,101031.30
2019-03-12T19:22:12.950Z,101035.21
2019-03-12T19:24:44.773Z,101028.05
2019-03-12T19:27:16.475Z,101030.61
2019-03-12T19:29:49.087Z,101013.75
2019-03-12T19:32:25.368Z,101010.47
2019-03-12T19:34:56.922Z,101011.77
2019-03-12T19:37:28.659Z,101002.39
2019-03-12T19:40:00.415Z,101000.41
2019-03-12T19:42:32.199Z,101002.63
2019-03-12T19:45:03.911Z,100998.43
2019-03-12T19:47:35.700Z,100998.20
2019-03-12T19:50:09.203Z,100992.83
2019-03-12T19:52:40.940Z,100990.80
2019-03-12T19:55:14.821Z,100979.09
2019-03-12T19:57:46.375Z,100977.59
2019-03-12T20:00:19.512Z,100975.57
2019-03-12T20:02:51.891Z,100973.63
2019-03-12T20:05:23.609Z,100965.45
2019-03-12T20:07:55.201Z,100956.55
2019-03-12T20:11:03.349Z,100957.48
2019-03-12T20:14:10.582Z,100957.75
2019-03-12T20:17:17.791Z,100956.97
2019-03-12T20:20:32.016Z,100950.19
2019-03-12T20:24:08.584Z,100949.92
2019-03-12T20:27:20.265Z,100936.02
2019-03-12T20:30:29.057Z,100931.89
2019-03-12T20:33:41.834Z,100921.69
2019-03-12T20:36:54.985Z,100913.55
2019-03-12T20:40:08.973Z,100914.82
2019-03-12T20:43:29.887Z,100901.52
2019-03-12T20:46:46.820Z,100892.52
2019-03-12T20:50:02.558Z,100882.73
2019-03-12T20:53:08.688Z,100876.45
2019-03-12T20:56:22.785Z,100868.84
2019-03-12T20:59:49.183Z,100851.16
2019-03-12T21:03:05.143Z,100851.20
2019-03-12T21:06:21.806Z,100841.88
2019-03-12T21:09:35.901Z,100838.00
2019-03-12T21:12:46.101Z,100839.92
2019-03-12T21:16:04.541Z,100828.11
2019-03-12T21:19:31.861Z,100821.77
2019-03-12T21:22:38.771Z,100818.94
2019-03-12T21:25:38.692Z,100815.72
2019-03-12T21:28:46.278Z,100800.81
2019-03-12T21:31:18.006Z,100794.50
2019-03-12T21:33:49.928Z,100792.92
2019-03-12T21:36:21.727Z,100792.28
2019-03-12T21:38:53.570Z,100782.80
2019-03-12T21:41:25.288Z,100781.38
2019-03-12T21:43:56.919Z,100779.17
2019-03-12T21:46:29.848Z,100762.97
2019-03-12T21:49:01.125Z,100757.74
2019-03-12T21:51:32.796Z,100753.78
2019-03-12T21:54:04.666Z,100741.64
2019-03-12T21:56:36.398Z,100738.06
2019-03-12T21:59:08.052Z,100734.52
2019-03-12T22:01:39.664Z,100728.94
2019-03-12T22:04:11.223Z,100719.97
2019-03-12T22:06:43.011Z,100710.44
2019-03-12T22:09:14.473Z,100706.50
2019-03-12T22:11:46.632Z,100703.87
2019-03-12T22:14:18.126Z,100696.77
2019-03-12T22:16:52.577Z,100688.75
2019-03-12T22:19:25.333Z,100685.00
2019-03-12T22:22:01.524Z,100683.08
2019-03-12T22:24:33.366Z,100676.49
2019-03-12T22:27:05.266Z,100671.83
2019-03-12T22:29:37.988Z,100654.11
2019-03-12T22:32:10.984Z,100657.20
2019-03-12T22:34:42.624Z,100649.97
2019-03-12T22:37:14.290Z,100638.16
2019-03-12T22:39:46.121Z,100623.63
2019-03-12T22:42:17.733Z,100631.84
2019-03-12T22:44:49.554Z,100625.22
2019-03-12T22:47:21.280Z,100618.88
2019-03-12T22:49:52.721Z,100620.83
2019-03-12T22:52:24.484Z,100618.99
2019-03-12T22:54:56.041Z,100610.64
2019-03-12T22:57:28.727Z,100610.52
2019-03-12T23:00:18.541Z,100602.13
2019-03-12T23:03:08.035Z,100588.44
2019-03-12T23:05:57.545Z,100580.56
2019-03-12T23:08:47.133Z,100566.66
2019-03-12T23:11:20.367Z,100559.75
2019-03-12T23:13:52.324Z,100557.40
2019-03-12T23:16:24.599Z,100552.50
2019-03-12T23:18:57.831Z,100548.33
2019-03-12T23:21:29.519Z,100543.61
2019-03-12T23:24:01.816Z,100538.05
2019-03-12T23:26:33.830Z,100539.38
2019-03-12T23:29:05.615Z,100528.48
2019-03-12T23:31:37.657Z,100523.78
2019-03-12T23:34:09.375Z,100525.22
2019-03-12T23:36:41.145Z,100515.94
2019-03-12T23:39:12.807Z,100512.17
2019-03-12T23:41:44.643Z,100496.83
2019-03-12T23:44:16.444Z,100489.28
2019-03-12T23:46:48.191Z,100489.89
2019-03-12T23:49:20.090Z,100482.78
2019-03-12T23:51:51.939Z,100472.14
2019-03-12T23:54:23.843Z,100474.41
2019-03-12T23:56:55.816Z,100466.98
2019-03-12T23:59:27.725Z,100464.73
